Time;durP1;ratioP1;P1;durP2;ratioP2;P2;SDS_P1;SDS_P2;PMS_P1;PMS_P2;Temp;Humidity;BMP_temperature;BMP_pressure;BME280_temperature;BME280_humidity;BME280_pressure;Samples;Min_cycle;Max_cycle;Signal;HPM_P1;HPM_P2
2023/06/25 00:01:29;;;;;;;3.00;2.05;;;20.70;96.60;;;;;;5056084;28;20085;-49
2023/06/25 00:03:56;;;;;;;2.83;2.08;;;20.70;96.70;;;;;;5056134;28;20076;-47
2023/06/25 00:06:23;;;;;;;3.03;2.00;;;20.70;96.70;;;;;;5056183;28;20036;-49
2023/06/25 00:08:50;;;;;;;3.13;1.80;;;20.60;96.90;;;;;;5054985;28;20048;-50
2023/06/25 00:11:17;;;;;;;3.00;2.05;;;20.60;96.70;;;;;;5055939;28;20037;-47
2023/06/25 00:13:44;;;;;;;2.70;2.00;;;20.60;96.70;;;;;;5054791;28;20051;-50
2023/06/25 00:16:10;;;;;;;2.97;1.83;;;20.60;96.80;;;;;;5043650;28;20049;-50
2023/06/25 00:18:37;;;;;;;4.45;1.90;;;20.50;96.60;;;;;;5054025;28;20099;-48
2023/06/25 00:21:05;;;;;;;3.63;2.20;;;20.50;96.60;;;;;;5045883;28;20053;-49
2023/06/25 00:23:31;;;;;;;2.75;2.08;;;20.50;96.60;;;;;;5043791;28;20156;-55
2023/06/25 00:25:58;;;;;;;3.42;1.83;;;20.50;96.60;;;;;;5045765;28;20040;-50
2023/06/25 00:28:26;;;;;;;2.75;2.10;;;20.50;96.50;;;;;;5051524;28;20435;-47
2023/06/25 00:30:52;;;;;;;2.20;1.73;;;20.50;96.40;;;;;;5054414;28;20492;-52
2023/06/25 00:33:19;;;;;;;2.75;1.83;;;20.40;96.50;;;;;;5054451;28;20487;-51
2023/06/25 00:35:46;;;;;;;2.95;2.00;;;20.40;96.40;;;;;;5054430;28;20049;-46
2023/06/25 00:38:13;;;;;;;2.80;1.92;;;20.40;96.50;;;;;;5054439;28;20041;-54
2023/06/25 00:40:40;;;;;;;2.72;2.13;;;20.40;96.50;;;;;;5055520;28;20040;-52
2023/06/25 00:43:06;;;;;;;2.58;1.85;;;20.30;96.50;;;;;;5053684;28;20049;-51
2023/06/25 00:45:33;;;;;;;2.75;2.00;;;20.30;96.60;;;;;;5054079;28;20547;-51
2023/06/25 00:48:00;;;;;;;4.57;1.80;;;20.20;96.70;;;;;;5055427;28;20037;-47
2023/06/25 00:50:27;;;;;;;3.00;2.00;;;20.20;96.70;;;;;;5054091;28;20041;-51
2023/06/25 00:52:56;;;;;;;3.13;2.00;;;20.20;96.70;;;;;;5055310;28;20037;-52
2023/06/25 00:55:23;;;;;;;3.35;1.95;;;20.20;96.80;;;;;;5054155;28;20037;-51
2023/06/25 00:57:52;;;;;;;3.70;2.00;;;20.10;96.80;;;;;;5055161;28;20044;-51
2023/06/25 01:00:19;;;;;;;3.17;1.98;;;20.10;96.90;;;;;;5053737;28;20067;-51
2023/06/25 01:02:46;;;;;;;3.15;2.05;;;20.10;97.00;;;;;;5055344;28;20457;-49
2023/06/25 01:05:13;;;;;;;2.50;1.83;;;20.00;97.00;;;;;;5053785;28;20071;-50
2023/06/25 01:07:43;;;;;;;3.08;1.92;;;20.00;97.00;;;;;;5053612;28;20116;-50
2023/06/25 01:10:10;;;;;;;2.97;1.77;;;19.90;97.10;;;;;;5037200;28;20126;-48
2023/06/25 01:12:37;;;;;;;2.60;1.80;;;19.80;97.20;;;;;;5054807;28;20049;-47
2023/06/25 01:15:04;;;;;;;3.53;1.85;;;19.80;97.30;;;;;;5053577;28;20503;-48
2023/06/25 01:17:31;;;;;;;4.50;1.98;;;19.80;97.30;;;;;;5053596;28;20041;-51
2023/06/25 01:19:58;;;;;;;3.30;2.10;;;19.80;97.30;;;;;;5054791;28;20059;-50
2023/06/25 01:22:24;;;;;;;3.63;2.10;;;19.70;97.30;;;;;;5054876;28;20052;-49
2023/06/25 01:24:51;;;;;;;3.17;1.98;;;19.70;97.30;;;;;;5053735;28;20048;-49
2023/06/25 01:27:21;;;;;;;3.35;2.13;;;19.60;97.30;;;;;;5054830;28;20033;-48
2023/06/25 01:29:51;;;;;;;3.97;1.98;;;19.60;97.50;;;;;;5054961;28;20069;-48
2023/06/25 01:32:18;;;;;;;2.80;1.65;;;19.50;97.50;;;;;;5053825;28;20041;-46
2023/06/25 01:34:45;;;;;;;2.47;1.80;;;19.40;97.70;;;;;;5054889;28;20120;-48
2023/06/25 01:37:17;;;;;;;2.70;1.90;;;19.40;97.70;;;;;;5054721;28;20053;-46
2023/06/25 01:39:45;;;;;;;2.80;1.92;;;19.40;97.90;;;;;;5054733;28;20056;-46
2023/06/25 01:42:12;;;;;;;2.92;1.92;;;19.30;97.70;;;;;;5054721;28;20048;-49
2023/06/25 01:44:39;;;;;;;3.65;1.90;;;19.30;97.80;;;;;;5053367;28;20460;-47
2023/06/25 01:47:06;;;;;;;3.53;2.17;;;19.20;97.90;;;;;;5054602;28;20095;-50
2023/06/25 01:49:33;;;;;;;3.22;2.10;;;19.20;97.90;;;;;;5053301;28;20431;-46
2023/06/25 01:52:00;;;;;;;2.95;2.00;;;19.20;98.10;;;;;;5054393;28;20086;-46
2023/06/25 01:54:27;;;;;;;2.45;2.03;;;19.10;98.10;;;;;;5052239;28;20492;-44
2023/06/25 01:56:54;;;;;;;2.92;2.10;;;19.00;98.10;;;;;;5053859;28;20476;-48
2023/06/25 01:59:20;;;;;;;2.80;1.83;;;19.00;98.20;;;;;;5052971;28;20460;-46
2023/06/25 02:01:48;;;;;;;2.70;1.70;;;19.00;98.20;;;;;;5052847;28;20187;-51
2023/06/25 02:04:15;;;;;;;2.88;1.60;;;19.00;98.30;;;;;;5053055;28;20060;-47
2023/06/25 02:06:41;;;;;;;3.92;2.10;;;19.00;98.30;;;;;;5054155;28;20132;-48
2023/06/25 02:09:08;;;;;;;3.17;1.92;;;18.90;98.30;;;;;;5054586;28;20072;-46
2023/06/25 02:11:35;;;;;;;3.03;1.70;;;18.80;98.30;;;;;;5053161;28;20037;-48
2023/06/25 02:14:02;;;;;;;3.17;1.77;;;18.80;98.30;;;;;;5054092;28;20127;-51
2023/06/25 02:16:29;;;;;;;3.17;1.90;;;18.80;98.40;;;;;;5053117;28;20048;-47
2023/06/25 02:18:56;;;;;;;3.05;1.83;;;18.70;98.30;;;;;;5054143;28;20039;-48
2023/06/25 02:21:22;;;;;;;3.55;2.00;;;18.70;98.70;;;;;;5054131;28;20041;-49
2023/06/25 02:23:49;;;;;;;3.22;1.90;;;18.70;98.40;;;;;;5053979;28;20451;-47
2023/06/25 02:26:16;;;;;;;4.10;1.80;;;18.70;98.40;;;;;;5052908;28;20376;-48
2023/06/25 02:28:43;;;;;;;2.95;1.77;;;18.70;98.40;;;;;;5054095;28;20072;-48
2023/06/25 02:31:10;;;;;;;2.75;1.73;;;18.70;98.40;;;;;;5053970;28;20063;-50
2023/06/25 02:33:36;;;;;;;2.67;1.73;;;18.60;98.40;;;;;;5052797;28;20033;-51
2023/06/25 02:36:03;;;;;;;2.42;1.70;;;18.60;98.40;;;;;;5052786;28;20037;-46
2023/06/25 02:38:30;;;;;;;3.10;1.80;;;18.60;98.40;;;;;;5054057;28;20045;-51
2023/06/25 02:40:57;;;;;;;3.38;1.75;;;18.60;98.40;;;;;;5054121;28;20114;-53
2023/06/25 02:43:24;;;;;;;3.13;1.80;;;18.60;98.30;;;;;;5052494;28;20041;-50
2023/06/25 02:45:51;;;;;;;2.50;1.52;;;18.60;98.20;;;;;;5052489;28;20036;-52
2023/06/25 02:48:20;;;;;;;2.72;1.60;;;18.60;98.10;;;;;;5052362;28;20128;-50
2023/06/25 02:50:47;;;;;;;2.28;1.52;;;18.50;98.10;;;;;;5052710;28;20037;-52
2023/06/25 02:53:14;;;;;;;3.17;1.65;;;18.60;98.00;;;;;;5053256;28;20052;-51
2023/06/25 02:55:41;;;;;;;3.53;1.85;;;18.60;97.90;;;;;;5052463;28;20102;-47
2023/06/25 02:58:07;;;;;;;2.33;1.38;;;18.60;97.80;;;;;;5052080;28;20135;-49
2023/06/25 03:00:35;;;;;;;4.03;1.55;;;18.60;97.80;;;;;;5049869;28;20060;-46
2023/06/25 03:03:02;;;;;;;2.15;1.30;;;18.60;97.60;;;;;;5052088;28;20053;-50
2023/06/25 03:05:30;;;;;;;2.42;1.45;;;18.60;97.50;;;;;;5052395;28;20135;-50
2023/06/25 03:07:58;;;;;;;2.75;1.40;;;18.70;97.40;;;;;;5056192;28;20557;-50
2023/06/25 03:10:25;;;;;;;2.95;1.60;;;18.70;97.40;;;;;;5056492;28;20139;-48
2023/06/25 03:12:53;;;;;;;2.17;1.20;;;18.70;97.30;;;;;;5056466;28;20442;-48
2023/06/25 03:15:20;;;;;;;3.22;1.58;;;18.70;97.20;;;;;;5057791;28;20040;-52
2023/06/25 03:17:47;;;;;;;2.47;1.40;;;18.70;97.10;;;;;;5057466;28;20068;-51
2023/06/25 03:20:14;;;;;;;2.25;1.38;;;18.70;97.10;;;;;;5056209;28;20048;-51
2023/06/25 03:22:41;;;;;;;2.47;1.40;;;18.70;96.90;;;;;;5056960;28;20056;-48
2023/06/25 03:25:08;;;;;;;2.47;1.40;;;18.70;96.80;;;;;;5055677;28;20091;-52
2023/06/25 03:27:38;;;;;;;2.30;1.40;;;18.70;96.70;;;;;;5055967;28;20462;-50
2023/06/25 03:30:05;;;;;;;2.47;1.40;;;18.70;96.50;;;;;;5057296;28;20071;-47
2023/06/25 03:32:32;;;;;;;3.00;1.42;;;18.70;96.30;;;;;;5055940;28;20479;-46
2023/06/25 03:35:00;;;;;;;3.03;1.48;;;18.80;96.20;;;;;;5055903;28;20132;-48
2023/06/25 03:37:27;;;;;;;2.63;1.60;;;18.70;96.10;;;;;;5039488;28;20537;-53
2023/06/25 03:39:54;;;;;;;2.78;1.50;;;18.80;96.20;;;;;;5055780;28;20072;-49
2023/06/25 03:42:22;;;;;;;2.45;1.67;;;18.80;96.40;;;;;;5055887;28;20118;-51
2023/06/25 03:44:49;;;;;;;2.35;1.80;;;18.80;96.60;;;;;;5056020;28;20045;-47
2023/06/25 03:47:19;;;;;;;4.03;2.10;;;18.80;96.90;;;;;;5055723;28;20043;-50
2023/06/25 03:49:46;;;;;;;2.92;2.13;;;18.80;97.20;;;;;;5056152;28;20052;-48
2023/06/25 03:52:14;;;;;;;3.85;2.40;;;18.80;97.60;;;;;;5057186;28;20123;-48
2023/06/25 03:54:41;;;;;;;3.50;2.47;;;18.80;98.00;;;;;;5055668;28;20041;-51
2023/06/25 03:57:09;;;;;;;4.32;2.42;;;18.90;98.40;;;;;;5055550;28;20041;-50
2023/06/25 03:59:35;;;;;;;3.13;2.67;;;18.90;98.60;;;;;;5056950;28;20043;-48
2023/06/25 04:02:02;;;;;;;4.20;2.78;;;18.90;98.90;;;;;;5055699;28;20049;-50
2023/06/25 04:04:29;;;;;;;4.45;3.13;;;18.90;99.20;;;;;;5055657;28;20041;-50
2023/06/25 04:06:57;;;;;;;6.28;3.47;;;18.90;99.40;;;;;;5055662;28;20124;-50
2023/06/25 04:09:24;;;;;;;5.82;3.45;;;18.90;99.50;;;;;;5055618;28;20037;-47
2023/06/25 04:11:51;;;;;;;5.65;3.53;;;19.00;99.60;;;;;;5055280;28;20033;-51
2023/06/25 04:14:18;;;;;;;5.00;3.50;;;19.00;99.70;;;;;;5055165;28;20041;-46
2023/06/25 04:16:46;;;;;;;5.88;3.72;;;19.00;99.80;;;;;;5055306;28;20107;-46
2023/06/25 04:19:12;;;;;;;6.63;3.97;;;19.00;99.70;;;;;;5055322;28;20098;-46
2023/06/25 04:21:39;;;;;;;5.05;3.47;;;19.10;99.80;;;;;;5054840;28;20048;-45
2023/06/25 04:24:06;;;;;;;6.35;3.70;;;19.10;99.80;;;;;;5054809;28;20561;-53
2023/06/25 04:26:33;;;;;;;8.60;4.60;;;19.10;99.90;;;;;;5056609;28;20067;-46
2023/06/25 04:29:02;;;;;;;4.38;3.65;;;19.20;99.90;;;;;;5055218;28;20045;-46
2023/06/25 04:31:30;;;;;;;5.72;3.75;;;19.20;99.80;;;;;;5054955;28;20033;-46
2023/06/25 04:33:57;;;;;;;5.97;3.75;;;19.20;99.70;;;;;;5054883;28;20108;-47
2023/06/25 04:36:24;;;;;;;5.65;3.72;;;19.30;99.70;;;;;;5055246;28;20455;-47
2023/06/25 04:38:56;;;;;;;5.97;3.88;;;19.40;99.60;;;;;;5054898;28;20070;-48
2023/06/25 04:41:26;;;;;;;6.03;3.70;;;19.50;99.40;;;;;;5055201;28;20071;-51
2023/06/25 04:43:54;;;;;;;5.43;3.63;;;19.70;99.20;;;;;;5054864;28;20045;-45
2023/06/25 04:46:20;;;;;;;5.05;3.60;;;19.90;98.90;;;;;;5054366;28;20561;-46
2023/06/25 04:48:47;;;;;;;6.40;3.90;;;20.10;98.80;;;;;;5054324;28;20072;-49
2023/06/25 04:51:14;;;;;;;5.25;3.40;;;20.20;98.50;;;;;;5037978;28;20033;-49
2023/06/25 04:53:41;;;;;;;5.65;3.50;;;20.40;98.40;;;;;;5055763;28;20120;-47
2023/06/25 04:56:08;;;;;;;6.30;3.40;;;20.50;98.20;;;;;;5056046;28;20037;-53
2023/06/25 04:58:35;;;;;;;5.88;3.30;;;20.70;98.00;;;;;;5055709;28;20496;-49
2023/06/25 05:01:02;;;;;;;6.30;3.25;;;20.80;98.00;;;;;;5054057;28;20065;-47
2023/06/25 05:03:29;;;;;;;6.50;3.08;;;20.90;97.30;;;;;;5055833;28;20052;-48
2023/06/25 05:05:56;;;;;;;5.93;3.22;;;21.00;97.00;;;;;;5055544;28;20107;-48
2023/06/25 05:08:23;;;;;;;4.63;2.80;;;21.10;96.50;;;;;;5055548;28;20047;-50
2023/06/25 05:10:50;;;;;;;5.55;2.65;;;21.20;96.60;;;;;;5055801;28;20033;-47
2023/06/25 05:13:17;;;;;;;5.93;2.58;;;21.30;96.30;;;;;;5055612;28;20041;-47
2023/06/25 05:15:43;;;;;;;4.38;2.78;;;21.40;96.10;;;;;;5055668;28;20045;-51
2023/06/25 05:18:10;;;;;;;5.45;3.05;;;21.50;96.30;;;;;;5054154;28;20051;-46
2023/06/25 05:20:38;;;;;;;5.28;2.90;;;21.50;96.00;;;;;;5055317;28;20040;-51
2023/06/25 05:23:05;;;;;;;5.07;2.78;;;21.60;95.80;;;;;;5055169;28;20041;-48
2023/06/25 05:25:32;;;;;;;4.93;2.85;;;21.70;95.80;;;;;;5055378;28;20040;-51
2023/06/25 05:27:59;;;;;;;4.55;2.55;;;21.70;95.40;;;;;;5054840;28;20045;-46
2023/06/25 05:30:25;;;;;;;4.45;2.72;;;21.80;95.30;;;;;;5055499;28;20506;-47
2023/06/25 05:32:52;;;;;;;5.55;2.70;;;21.90;95.20;;;;;;5054987;28;20115;-52
2023/06/25 05:35:19;;;;;;;5.30;2.85;;;22.00;95.00;;;;;;5055335;28;20037;-49
2023/06/25 05:37:46;;;;;;;5.07;2.70;;;22.00;95.00;;;;;;5055319;28;20376;-48
2023/06/25 05:40:13;;;;;;;6.35;3.15;;;22.10;94.80;;;;;;5055370;28;20384;-48
2023/06/25 05:42:39;;;;;;;3.63;2.83;;;22.20;94.80;;;;;;5055098;28;20033;-48
2023/06/25 05:45:06;;;;;;;4.90;2.63;;;22.30;95.00;;;;;;5054954;28;20095;-47
2023/06/25 05:47:33;;;;;;;3.88;2.80;;;22.40;94.70;;;;;;5055026;28;20037;-50
2023/06/25 05:50:00;;;;;;;4.63;2.70;;;22.50;94.60;;;;;;5054750;28;20040;-48
2023/06/25 05:52:27;;;;;;;3.70;2.60;;;22.50;94.30;;;;;;5054536;28;20071;-50
2023/06/25 05:54:53;;;;;;;3.55;2.65;;;22.60;94.10;;;;;;5054732;28;20041;-49
2023/06/25 05:57:20;;;;;;;4.70;2.65;;;22.80;93.90;;;;;;5054640;28;20155;-50
2023/06/25 05:59:47;;;;;;;4.75;3.00;;;22.80;93.80;;;;;;5053194;28;20369;-50
2023/06/25 06:02:14;;;;;;;3.50;2.60;;;22.90;93.80;;;;;;5054320;28;20124;-49
2023/06/25 06:04:41;;;;;;;5.18;2.42;;;23.00;93.50;;;;;;5053164;28;20446;-49
2023/06/25 06:07:08;;;;;;;3.88;2.30;;;23.10;93.50;;;;;;5054497;28;20063;-49
2023/06/25 06:09:35;;;;;;;4.68;3.03;;;23.20;93.60;;;;;;5054368;28;20503;-54
2023/06/25 06:12:02;;;;;;;6.68;2.78;;;23.30;93.60;;;;;;5054380;28;20045;-54
2023/06/25 06:14:28;;;;;;;3.85;2.60;;;23.20;93.60;;;;;;5054329;28;20055;-46
2023/06/25 06:16:55;;;;;;;3.45;2.42;;;23.20;93.40;;;;;;5053765;28;20047;-47
2023/06/25 06:19:22;;;;;;;4.43;3.00;;;23.20;93.50;;;;;;5054199;28;20037;-51
2023/06/25 06:21:49;;;;;;;4.40;2.65;;;23.10;93.60;;;;;;5052832;28;20040;-50
2023/06/25 06:24:16;;;;;;;3.42;2.35;;;23.10;93.50;;;;;;5054255;28;20040;-50
2023/06/25 06:26:43;;;;;;;4.00;2.88;;;23.10;93.70;;;;;;5054096;28;20041;-46
2023/06/25 06:29:09;;;;;;;4.18;2.60;;;23.10;93.70;;;;;;5053963;28;20502;-48
2023/06/25 06:31:40;;;;;;;3.95;2.88;;;23.10;93.80;;;;;;5054258;28;20037;-53
2023/06/25 06:34:06;;;;;;;8.77;3.05;;;23.10;93.90;;;;;;5054126;28;20041;-48
2023/06/25 06:36:33;;;;;;;5.43;2.78;;;23.10;94.00;;;;;;5054302;28;20041;-46
2023/06/25 06:39:00;;;;;;;4.43;3.00;;;23.10;94.00;;;;;;5053988;28;20472;-51
2023/06/25 06:41:27;;;;;;;4.95;3.10;;;23.10;93.90;;;;;;5053461;28;20051;-50
2023/06/25 06:43:54;;;;;;;7.13;2.60;;;23.10;94.00;;;;;;5053902;28;20045;-48
2023/06/25 06:46:21;;;;;;;3.88;2.97;;;23.10;93.90;;;;;;5053928;28;20431;-52
2023/06/25 06:48:47;;;;;;;5.70;3.30;;;23.10;94.00;;;;;;5053807;28;20029;-51
2023/06/25 06:51:14;;;;;;;4.90;2.88;;;23.20;93.90;;;;;;5053520;28;20484;-51
2023/06/25 06:53:41;;;;;;;4.18;2.95;;;23.20;94.00;;;;;;5042276;28;20468;-47
2023/06/25 06:56:08;;;;;;;3.60;2.75;;;23.30;93.80;;;;;;5044162;28;20040;-46
2023/06/25 06:58:34;;;;;;;12.07;3.20;;;23.30;93.80;;;;;;5051622;28;20116;-45
2023/06/25 07:01:01;;;;;;;4.75;2.95;;;23.30;93.50;;;;;;5053089;28;20056;-46
2023/06/25 07:03:28;;;;;;;4.88;3.17;;;23.30;93.70;;;;;;5053320;28;20045;-44
2023/06/25 07:05:55;;;;;;;5.30;3.42;;;23.30;93.60;;;;;;5053209;28;20055;-46
2023/06/25 07:08:21;;;;;;;3.92;2.90;;;23.40;93.70;;;;;;5050325;28;20044;-47
2023/06/25 07:10:48;;;;;;;4.28;2.70;;;23.40;93.70;;;;;;5053576;28;20514;-47
2023/06/25 07:13:15;;;;;;;3.72;2.42;;;23.50;93.60;;;;;;5053484;28;20087;-47
2023/06/25 07:15:42;;;;;;;4.05;3.28;;;23.50;93.60;;;;;;5053743;28;20049;-45
2023/06/25 07:18:09;;;;;;;5.50;2.78;;;23.50;93.40;;;;;;5053247;28;20045;-46
2023/06/25 07:20:35;;;;;;;7.25;3.38;;;23.60;93.50;;;;;;5053500;28;20052;-48
2023/06/25 07:23:02;;;;;;;7.22;3.30;;;23.60;93.50;;;;;;5053383;28;20080;-45
2023/06/25 07:25:29;;;;;;;8.02;3.10;;;23.60;93.40;;;;;;5053330;28;20053;-49
2023/06/25 07:27:56;;;;;;;5.43;3.20;;;23.60;93.50;;;;;;5051862;28;20047;-50
2023/06/25 07:30:22;;;;;;;5.07;3.10;;;23.70;93.60;;;;;;5052114;28;20438;-48
2023/06/25 07:32:49;;;;;;;3.67;2.95;;;23.70;93.40;;;;;;5052725;28;20119;-50
2023/06/25 07:35:16;;;;;;;5.22;3.30;;;23.70;93.50;;;;;;5052181;28;20037;-54
2023/06/25 07:37:43;;;;;;;6.38;3.42;;;23.80;93.60;;;;;;5052719;28;20041;-48
2023/06/25 07:40:09;;;;;;;4.07;2.63;;;23.80;93.70;;;;;;5052591;28;20064;-49
2023/06/25 07:42:36;;;;;;;5.22;2.90;;;23.90;93.30;;;;;;5052002;28;20102;-51
2023/06/25 07:45:03;;;;;;;4.70;2.90;;;23.90;93.50;;;;;;5052661;28;20036;-47
2023/06/25 07:47:30;;;;;;;8.80;3.08;;;24.00;93.40;;;;;;5052606;28;20314;-51
2023/06/25 07:49:57;;;;;;;4.25;3.03;;;24.00;93.40;;;;;;5052876;28;20365;-50
2023/06/25 07:52:23;;;;;;;6.57;3.30;;;24.10;93.50;;;;;;5053460;28;20116;-48
2023/06/25 07:54:50;;;;;;;5.70;3.08;;;24.10;93.50;;;;;;5056611;28;20041;-51
2023/06/25 07:57:17;;;;;;;5.20;3.17;;;24.10;93.30;;;;;;5056026;28;20037;-48
2023/06/25 07:59:44;;;;;;;6.85;3.28;;;24.10;93.30;;;;;;5056738;28;20090;-49
2023/06/25 08:02:19;;;;;;;5.47;3.42;;;24.10;93.40;;;;;;5056889;28;20102;-48
2023/06/25 08:04:46;;;;;;;4.97;3.15;;;24.20;93.40;;;;;;5056865;28;20396;-47
2023/06/25 08:07:13;;;;;;;4.78;3.38;;;24.30;93.30;;;;;;5056606;28;20052;-50
2023/06/25 08:09:41;;;;;;;4.93;3.13;;;24.40;93.40;;;;;;5056627;28;20529;-48
2023/06/25 08:12:08;;;;;;;5.18;3.17;;;24.40;93.10;;;;;;5056637;28;20111;-51
2023/06/25 08:14:35;;;;;;;5.45;3.05;;;24.50;93.10;;;;;;5055454;28;20454;-49
2023/06/25 08:17:01;;;;;;;4.47;3.25;;;24.50;93.20;;;;;;5056708;28;20119;-51
2023/06/25 08:19:28;;;;;;;6.65;3.45;;;24.60;93.00;;;;;;5056299;28;20132;-48
2023/06/25 08:21:55;;;;;;;4.05;3.30;;;24.60;93.20;;;;;;5056734;28;20045;-50
2023/06/25 08:24:22;;;;;;;6.10;3.45;;;24.70;92.90;;;;;;5056499;28;20049;-52
2023/06/25 08:26:49;;;;;;;5.20;3.10;;;24.80;93.00;;;;;;5056560;28;20447;-55
2023/06/25 08:29:15;;;;;;;5.38;3.05;;;24.80;93.00;;;;;;5056228;28;20063;-54
2023/06/25 08:31:42;;;;;;;7.55;3.22;;;24.90;92.90;;;;;;5055144;28;20049;-50
2023/06/25 08:34:09;;;;;;;5.90;3.08;;;24.90;92.70;;;;;;5056407;28;20380;-52
2023/06/25 08:36:36;;;;;;;4.95;3.10;;;24.90;92.80;;;;;;5054850;28;20395;-53
2023/06/25 08:39:03;;;;;;;7.15;2.90;;;24.90;93.00;;;;;;5056246;28;20037;-52
2023/06/25 08:41:30;;;;;;;5.45;3.45;;;25.00;93.10;;;;;;5056341;28;20073;-50
2023/06/25 08:43:56;;;;;;;6.30;3.22;;;25.00;92.60;;;;;;5056071;28;20049;-52
2023/06/25 08:46:23;;;;;;;3.72;3.05;;;25.10;92.70;;;;;;5056226;28;20060;-48
2023/06/25 08:48:50;;;;;;;6.85;3.10;;;25.10;92.90;;;;;;5056059;28;20124;-51
2023/06/25 08:51:17;;;;;;;5.18;3.13;;;25.20;92.90;;;;;;5054561;28;20132;-47
2023/06/25 08:53:44;;;;;;;3.83;3.08;;;25.30;92.70;;;;;;5054656;28;20040;-51
2023/06/25 08:56:10;;;;;;;4.78;3.47;;;25.30;92.70;;;;;;5055981;28;20047;-48
2023/06/25 08:58:37;;;;;;;7.65;3.08;;;25.40;92.50;;;;;;5055764;28;20041;-48
2023/06/25 09:01:04;;;;;;;4.65;2.83;;;25.40;92.40;;;;;;5055424;28;20480;-49
2023/06/25 09:03:31;;;;;;;4.03;3.05;;;25.50;92.60;;;;;;5055350;28;20052;-53
2023/06/25 09:05:58;;;;;;;6.45;3.28;;;25.50;92.40;;;;;;5055344;28;20087;-51
2023/06/25 09:08:25;;;;;;;7.03;3.70;;;25.50;92.80;;;;;;5054125;28;20041;-50
2023/06/25 09:10:52;;;;;;;4.90;3.58;;;25.60;92.50;;;;;;5055779;28;20059;-51
2023/06/25 09:13:18;;;;;;;6.68;3.40;;;25.70;92.40;;;;;;5055058;28;20472;-50
2023/06/25 09:15:45;;;;;;;3.85;3.08;;;25.80;92.20;;;;;;5055597;28;20464;-49
2023/06/25 09:18:12;;;;;;;4.47;3.03;;;25.80;92.20;;;;;;5055393;28;20436;-46
2023/06/25 09:20:39;;;;;;;4.18;3.20;;;25.90;92.60;;;;;;5055488;28;20051;-46
2023/06/25 09:23:06;;;;;;;4.75;3.22;;;25.90;92.20;;;;;;5055055;28;20048;-54
2023/06/25 09:25:33;;;;;;;6.03;3.47;;;26.00;92.00;;;;;;5055326;28;20133;-50
2023/06/25 09:27:59;;;;;;;6.60;3.60;;;26.00;91.90;;;;;;5055172;28;20041;-51
2023/06/25 09:30:26;;;;;;;4.35;3.08;;;26.00;91.30;;;;;;5055340;28;20041;-49
2023/06/25 09:32:53;;;;;;;6.40;3.20;;;26.10;91.10;;;;;;5054946;28;20429;-51
2023/06/25 09:35:20;;;;;;;4.32;3.13;;;26.10;91.40;;;;;;5054858;28;20388;-48
2023/06/25 09:37:47;;;;;;;5.95;3.58;;;26.20;91.00;;;;;;5055127;28;20033;-51
2023/06/25 09:40:13;;;;;;;4.63;3.00;;;26.20;91.00;;;;;;5054825;28;20127;-49
2023/06/25 09:42:40;;;;;;;4.70;3.15;;;26.20;91.10;;;;;;5054944;28;20059;-52
2023/06/25 09:45:07;;;;;;;6.18;3.25;;;26.30;91.00;;;;;;5054760;28;20119;-52
2023/06/25 09:47:34;;;;;;;7.70;3.25;;;26.30;91.00;;;;;;5054859;28;20080;-47
2023/06/25 09:50:01;;;;;;;5.50;3.30;;;26.30;90.90;;;;;;5054610;28;20047;-49
2023/06/25 09:52:27;;;;;;;4.93;3.53;;;26.40;91.20;;;;;;5054598;28;20051;-52
2023/06/25 09:54:54;;;;;;;5.68;3.38;;;26.40;91.00;;;;;;5054785;28;20047;-50
2023/06/25 09:57:21;;;;;;;8.50;3.10;;;26.50;90.90;;;;;;5054576;28;20478;-51
2023/06/25 09:59:48;;;;;;;4.25;3.35;;;26.50;90.90;;;;;;5054255;28;20041;-50
2023/06/25 10:02:15;;;;;;;3.78;3.17;;;26.60;90.90;;;;;;5054671;28;20830;-46
2023/06/25 10:04:43;;;;;;;5.07;3.25;;;26.60;90.80;;;;;;5054478;28;20045;-47
2023/06/25 10:07:10;;;;;;;3.70;3.17;;;26.70;90.50;;;;;;5054410;28;20113;-49
2023/06/25 10:09:37;;;;;;;4.88;3.40;;;26.80;90.60;;;;;;5054095;28;20041;-47
2023/06/25 10:12:04;;;;;;;4.60;3.30;;;26.80;90.00;;;;;;5052855;28;20033;-51
2023/06/25 10:14:30;;;;;;;6.47;3.45;;;26.90;90.20;;;;;;5054354;28;20049;-52
2023/06/25 10:16:57;;;;;;;4.95;3.03;;;26.90;90.10;;;;;;5053633;28;20041;-52
2023/06/25 10:19:24;;;;;;;6.43;3.42;;;26.90;90.30;;;;;;5054345;28;20102;-53
2023/06/25 10:21:51;;;;;;;5.57;3.00;;;27.00;90.00;;;;;;5054198;28;20045;-53
2023/06/25 10:24:18;;;;;;;5.20;3.38;;;27.00;89.80;;;;;;5052746;28;20515;-48
2023/06/25 10:26:44;;;;;;;4.63;3.25;;;27.00;90.10;;;;;;5054046;28;20041;-45
2023/06/25 10:29:11;;;;;;;5.50;3.53;;;27.10;90.10;;;;;;5053784;28;20041;-53
2023/06/25 10:31:38;;;;;;;6.15;3.30;;;27.20;90.10;;;;;;5053814;28;20037;-54
2023/06/25 10:34:05;;;;;;;4.85;3.38;;;27.20;90.00;;;;;;5053763;28;20380;-52
2023/06/25 10:36:32;;;;;;;5.05;3.20;;;27.30;89.60;;;;;;5054172;28;20041;-55
2023/06/25 10:38:59;;;;;;;5.30;3.10;;;27.30;89.80;;;;;;5053998;28;20380;-51
2023/06/25 10:41:26;;;;;;;4.22;3.25;;;27.40;90.00;;;;;;5053833;28;20488;-49
2023/06/25 10:43:52;;;;;;;7.10;3.35;;;27.40;89.50;;;;;;5053938;28;20049;-53
2023/06/25 10:46:19;;;;;;;5.15;3.38;;;27.50;89.90;;;;;;5053759;28;20051;-50
2023/06/25 10:48:46;;;;;;;5.68;3.25;;;27.50;89.20;;;;;;5052678;28;20041;-51
2023/06/25 10:51:13;;;;;;;4.78;3.50;;;27.60;88.30;;;;;;5053736;28;20048;-50
2023/06/25 10:53:40;;;;;;;6.13;3.00;;;27.70;88.70;;;;;;5053532;28;20494;-52
2023/06/25 10:56:06;;;;;;;3.95;3.20;;;27.70;88.10;;;;;;5053775;28;20408;-51
2023/06/25 10:58:33;;;;;;;7.65;3.13;;;27.70;88.00;;;;;;5053753;28;20128;-51
2023/06/25 11:01:00;;;;;;;3.58;2.85;;;27.70;88.60;;;;;;5053577;28;20052;-50
2023/06/25 11:03:27;;;;;;;5.00;3.00;;;27.90;87.40;;;;;;5053600;28;20452;-51
2023/06/25 11:05:54;;;;;;;3.28;2.90;;;27.90;87.00;;;;;;5053497;28;20076;-52
2023/06/25 11:08:21;;;;;;;6.00;2.90;;;28.00;86.70;;;;;;5053873;28;20072;-48
2023/06/25 11:10:47;;;;;;;4.65;2.85;;;28.00;86.60;;;;;;5053674;28;20041;-52
2023/06/25 11:13:14;;;;;;;6.68;3.08;;;28.00;86.50;;;;;;5053662;28;20041;-49
2023/06/25 11:15:41;;;;;;;5.45;2.90;;;28.10;86.70;;;;;;5052592;28;20041;-53
2023/06/25 11:18:08;;;;;;;3.53;2.75;;;28.20;85.50;;;;;;5053371;28;20052;-48
2023/06/25 11:20:35;;;;;;;4.88;2.88;;;28.20;84.30;;;;;;5053438;28;20071;-53
2023/06/25 11:23:02;;;;;;;6.20;2.90;;;28.20;85.30;;;;;;5053301;28;20076;-53
2023/06/25 11:25:29;;;;;;;8.27;3.08;;;28.20;84.40;;;;;;5053359;28;20044;-50
2023/06/25 11:27:56;;;;;;;4.43;3.20;;;28.30;85.30;;;;;;5055577;28;20044;-53
2023/06/25 11:30:22;;;;;;;4.72;3.38;;;28.40;86.00;;;;;;5057175;28;20045;-49
2023/06/25 11:32:50;;;;;;;5.55;3.10;;;28.40;85.60;;;;;;5057082;28;20048;-49
2023/06/25 11:35:17;;;;;;;7.13;3.13;;;28.50;85.80;;;;;;5057200;28;20137;-50
2023/06/25 11:37:44;;;;;;;5.90;3.17;;;28.50;85.50;;;;;;5057536;28;20171;-50
2023/06/25 11:40:10;;;;;;;7.00;3.00;;;28.60;84.70;;;;;;5056932;28;20095;-48
2023/06/25 11:42:40;;;;;;;5.35;2.80;;;28.60;84.60;;;;;;5057369;28;20103;-49
2023/06/25 11:45:08;;;;;;;4.10;2.78;;;28.60;84.50;;;;;;5057126;28;20127;-48
2023/06/25 11:47:35;;;;;;;3.22;2.70;;;28.60;84.80;;;;;;5056092;28;20086;-52
2023/06/25 11:50:02;;;;;;;7.82;3.50;;;28.60;84.90;;;;;;5057156;28;20036;-45
2023/06/25 11:52:28;;;;;;;5.53;2.80;;;28.70;85.00;;;;;;5055846;28;20045;-50
2023/06/25 11:54:55;;;;;;;5.45;2.92;;;28.80;84.00;;;;;;5057057;28;20376;-50
2023/06/25 11:57:22;;;;;;;3.92;2.92;;;28.80;83.20;;;;;;5056525;28;20396;-51
2023/06/25 11:59:49;;;;;;;3.88;2.83;;;28.80;82.90;;;;;;5056801;28;20044;-48
2023/06/25 12:02:16;;;;;;;5.07;2.88;;;28.80;82.60;;;;;;5056860;28;20119;-52
2023/06/25 12:04:42;;;;;;;5.78;2.95;;;28.80;81.50;;;;;;5056742;28;20041;-53
2023/06/25 12:07:09;;;;;;;6.65;3.05;;;28.80;82.10;;;;;;5056478;28;20049;-55
2023/06/25 12:09:37;;;;;;;4.47;2.80;;;28.80;81.90;;;;;;5056489;28;20045;-55
2023/06/25 12:12:04;;;;;;;5.93;3.00;;;28.80;82.30;;;;;;5055534;28;20071;-54
2023/06/25 12:14:31;;;;;;;5.60;3.17;;;28.80;82.00;;;;;;5056601;28;20043;-52
2023/06/25 12:16:57;;;;;;;6.82;3.00;;;28.90;81.40;;;;;;5056792;28;20033;-54
2023/06/25 12:19:24;;;;;;;7.75;3.30;;;28.90;81.20;;;;;;5056626;28;20044;-49
2023/06/25 12:21:51;;;;;;;6.15;3.58;;;28.90;81.10;;;;;;5056550;28;20067;-47
2023/06/25 12:24:18;;;;;;;4.80;2.67;;;28.90;81.40;;;;;;5056385;28;20103;-50
2023/06/25 12:26:45;;;;;;;4.45;2.70;;;28.90;81.90;;;;;;5056445;28;20045;-54
2023/06/25 12:29:11;;;;;;;5.18;2.92;;;29.00;81.50;;;;;;5056284;28;20043;-52
2023/06/25 12:31:38;;;;;;;5.72;2.80;;;29.00;81.20;;;;;;5054737;28;20037;-50
2023/06/25 12:34:05;;;;;;;5.95;2.90;;;29.00;81.20;;;;;;5056127;28;20476;-48
2023/06/25 12:36:32;;;;;;;3.95;3.00;;;29.10;80.70;;;;;;5054898;28;20033;-48
2023/06/25 12:39:00;;;;;;;3.90;2.65;;;29.10;80.90;;;;;;5054333;28;20045;-53
2023/06/25 12:41:27;;;;;;;3.75;2.83;;;29.10;80.40;;;;;;5056304;28;20041;-49
2023/06/25 12:43:54;;;;;;;4.30;2.90;;;29.10;80.70;;;;;;5055722;28;20484;-54
2023/06/25 12:46:21;;;;;;;7.90;3.22;;;29.10;80.50;;;;;;5054661;28;20044;-50